Time;durP1;ratioP1;P1;durP2;ratioP2;P2;SDS_P1;SDS_P2;PMS_P1;PMS_P2;Temp;Humidity;BMP_temperature;BMP_pressure;BME280_temperature;BME280_humidity;BME280_pressure;Samples;Min_cycle;Max_cycle;Signal;HPM_P1;HPM_P2
2023/11/06 00:00:58;;;;;;;7.65;3.13;;;;;;;7.11;78.76;97620.44;4981458;28;20141;-41
2023/11/06 00:03:25;;;;;;;7.75;2.83;;;;;;;7.09;78.12;97617.91;4973978;28;20042;-43
2023/11/06 00:05:52;;;;;;;8.57;3.38;;;;;;;7.10;79.15;97617.03;4977402;28;20082;-47
2023/11/06 00:08:19;;;;;;;7.70;3.30;;;;;;;7.11;78.05;97612.72;4976388;28;20054;-42
2023/11/06 00:10:45;;;;;;;5.07;1.98;;;;;;;7.07;78.46;97615.38;4982068;28;20082;-42
2023/11/06 00:13:12;;;;;;;9.18;3.03;;;;;;;7.11;78.10;97612.72;4983164;28;20130;-42
2023/11/06 00:15:39;;;;;;;7.82;3.67;;;;;;;7.10;77.88;97616.19;4976919;28;20047;-44
2023/11/06 00:18:05;;;;;;;9.07;5.30;;;;;;;7.09;78.17;97605.03;4979498;28;20054;-44
2023/11/06 00:20:32;;;;;;;7.07;2.80;;;;;;;7.07;79.12;97594.78;4974436;28;20447;-46
2023/11/06 00:22:59;;;;;;;8.00;3.00;;;;;;;7.07;79.08;97606.81;4981549;28;20058;-45
2023/11/06 00:25:26;;;;;;;7.70;2.90;;;;;;;7.08;79.52;97608.50;4979385;28;20081;-48
2023/11/06 00:27:52;;;;;;;8.48;2.53;;;;;;;7.09;79.57;97615.31;4982520;28;20054;-46
2023/11/06 00:30:20;;;;;;;6.88;2.22;;;;;;;7.09;79.03;97615.31;4975651;28;20054;-45
2023/11/06 00:32:46;;;;;;;10.98;2.40;;;;;;;7.10;78.45;97614.47;4982723;28;20121;-45
2023/11/06 00:35:13;;;;;;;8.82;2.67;;;;;;;7.08;79.89;97603.34;4984496;28;20081;-41
2023/11/06 00:37:40;;;;;;;11.10;2.78;;;;;;;7.11;79.95;97610.13;4986963;28;20078;-50
2023/11/06 00:40:08;;;;;;;6.47;2.92;;;;;;;7.12;78.84;97619.56;4979016;28;20082;-42
2023/11/06 00:42:35;;;;;;;5.78;2.42;;;;;;;7.12;80.30;97617.00;4983764;28;20050;-47
2023/11/06 00:45:02;;;;;;;3.92;1.88;;;;;;;7.14;79.46;97617.78;4974689;28;20074;-43
2023/11/06 00:47:29;;;;;;;4.15;2.00;;;;;;;7.12;79.24;97620.41;4982337;28;20061;-45
2023/11/06 00:49:56;;;;;;;10.20;2.08;;;;;;;7.14;78.61;97628.06;4976437;28;20125;-47
2023/11/06 00:52:22;;;;;;;9.80;2.22;;;;;;;7.15;78.81;97620.31;4981788;28;20403;-44
2023/11/06 00:54:49;;;;;;;4.65;1.50;;;;;;;7.14;78.75;97623.78;4983912;28;20053;-44
2023/11/06 00:57:16;;;;;;;4.38;1.50;;;;;;;7.13;79.72;97632.38;4985651;28;20051;-44
2023/11/06 00:59:43;;;;;;;4.13;1.58;;;;;;;7.12;79.91;97635.84;4979428;28;20043;-46
2023/11/06 01:02:09;;;;;;;5.22;3.30;;;;;;;7.12;78.96;97635.84;4976912;28;20055;-44
2023/11/06 01:04:36;;;;;;;3.00;1.58;;;;;;;7.13;80.17;97647.81;4974857;28;20056;-47
2023/11/06 01:07:03;;;;;;;7.32;1.75;;;;;;;7.11;79.43;97636.75;4981350;28;20078;-42
2023/11/06 01:09:31;;;;;;;2.38;1.33;;;;;;;7.11;79.62;97649.59;4989146;28;20049;-46
2023/11/06 01:11:57;;;;;;;6.22;1.48;;;;;;;7.11;79.04;97647.03;4985826;28;20095;-45
2023/11/06 01:14:24;;;;;;;4.10;0.95;;;;;;;7.10;79.61;97655.66;4985667;28;20084;-47
2023/11/06 01:16:53;;;;;;;4.63;1.50;;;;;;;7.11;80.11;97652.19;4986208;28;20128;-45
2023/11/06 01:19:20;;;;;;;5.03;1.13;;;;;;;7.09;79.92;97646.22;4980098;28;20042;-41
2023/11/06 01:21:47;;;;;;;3.90;1.42;;;;;;;7.10;79.44;97654.78;4979372;28;20415;-40
2023/11/06 01:24:13;;;;;;;3.83;1.33;;;;;;;7.09;79.22;97653.94;4978403;28;20134;-46
2023/11/06 01:26:42;;;;;;;4.32;1.75;;;;;;;7.09;78.98;97650.53;4983631;28;20050;-44
2023/11/06 01:29:11;;;;;;;3.28;1.35;;;;;;;7.09;78.87;97655.69;4983677;28;20054;-44
2023/11/06 01:31:38;;;;;;;6.28;1.58;;;;;;;7.08;79.31;97659.97;4980163;28;20117;-49
2023/11/06 01:34:05;;;;;;;2.97;1.20;;;;;;;7.06;79.46;97662.59;4981595;28;20054;-46
2023/11/06 01:36:33;;;;;;;3.72;1.52;;;;;;;7.07;79.25;97659.13;4979294;28;20042;-45
2023/11/06 01:39:00;;;;;;;12.60;1.38;;;;;;;7.06;79.91;97662.59;4985993;28;20504;-47
2023/11/06 01:41:27;;;;;;;7.65;1.38;;;;;;;7.06;79.33;97664.34;4980373;28;20058;-45
2023/11/06 01:43:53;;;;;;;5.68;2.00;;;;;;;7.05;79.71;97660.06;4976074;28;20109;-42
2023/11/06 01:46:20;;;;;;;8.82;1.08;;;;;;;7.06;80.13;97666.91;4984389;28;20047;-40
2023/11/06 01:48:48;;;;;;;4.65;1.38;;;;;;;7.05;79.76;97675.50;4981065;28;20444;-47
2023/11/06 01:51:16;;;;;;;6.47;1.42;;;;;;;7.06;80.29;97672.06;4984256;28;20042;-44
2023/11/06 01:53:43;;;;;;;13.77;1.55;;;;;;;7.07;79.63;97678.88;4975371;28;20050;-47
2023/11/06 01:56:11;;;;;;;8.32;1.17;;;;;;;7.07;80.17;97681.47;4989348;28;20050;-42
2023/11/06 01:58:38;;;;;;;6.10;1.20;;;;;;;7.08;80.67;97685.72;4983567;28;20064;-45
2023/11/06 02:01:05;;;;;;;5.00;1.17;;;;;;;7.07;80.70;97684.03;4978465;28;20069;-47
2023/11/06 02:03:33;;;;;;;3.80;1.80;;;;;;;7.07;80.57;97689.19;4984039;28;20054;-47
2023/11/06 02:06:00;;;;;;;4.03;1.02;;;;;;;7.08;79.61;97690.88;4985371;28;20054;-47
2023/11/06 02:08:27;;;;;;;5.65;1.23;;;;;;;7.09;79.61;97697.69;4972603;28;20070;-43
2023/11/06 02:10:54;;;;;;;5.22;1.58;;;;;;;7.09;80.15;97700.28;4982956;28;20472;-48
2023/11/06 02:13:22;;;;;;;4.88;1.25;;;;;;;7.10;80.82;97696.84;4982091;28;20514;-49
2023/11/06 02:15:49;;;;;;;2.28;1.13;;;;;;;7.11;81.22;97697.66;4975941;28;20471;-43
2023/11/06 02:18:16;;;;;;;8.25;1.33;;;;;;;7.14;79.77;97701.00;4981999;28;20053;-45
2023/11/06 02:20:43;;;;;;;4.43;1.55;;;;;;;7.19;79.96;97699.16;4983488;28;20077;-43
2023/11/06 02:23:09;;;;;;;3.33;1.33;;;;;;;7.22;79.76;97697.41;4981680;28;20078;-42
2023/11/06 02:25:36;;;;;;;5.50;1.75;;;;;;;7.24;79.74;97711.06;4985462;28;20137;-41
2023/11/06 02:28:03;;;;;;;6.80;1.45;;;;;;;7.20;79.61;97711.13;4987843;28;20058;-44
2023/11/06 02:30:30;;;;;;;3.78;1.67;;;;;;;7.19;80.14;97703.44;4986193;28;20096;-48
2023/11/06 02:32:57;;;;;;;4.35;1.35;;;;;;;7.19;80.13;97708.59;4984942;28;20496;-43
2023/11/06 02:35:24;;;;;;;2.95;1.25;;;;;;;7.15;79.55;97694.97;4980452;28;20507;-42
2023/11/06 02:37:51;;;;;;;4.05;1.30;;;;;;;7.15;79.68;97710.41;4981308;28;20043;-45
2023/11/06 02:40:18;;;;;;;7.20;1.30;;;;;;;7.15;80.06;97712.13;4981034;28;20054;-45
2023/11/06 02:42:45;;;;;;;6.60;1.23;;;;;;;7.13;81.33;97704.44;4979398;28;20042;-48
2023/11/06 02:45:12;;;;;;;2.95;1.60;;;;;;;7.19;80.06;97708.59;4982569;28;20049;-45
2023/11/06 02:47:38;;;;;;;3.72;1.50;;;;;;;7.26;79.77;97714.44;4982714;28;20050;-46
2023/11/06 02:50:06;;;;;;;4.25;1.17;;;;;;;7.28;79.91;97710.09;4986895;28;20058;-49
2023/11/06 02:52:33;;;;;;;5.15;1.58;;;;;;;7.29;80.90;97711.75;4982829;28;20070;-41
2023/11/06 02:54:59;;;;;;;4.05;1.75;;;;;;;7.30;80.94;97710.91;4981728;28;20399;-42
2023/11/06 02:57:26;;;;;;;2.15;1.40;;;;;;;7.27;81.14;97716.13;4978402;28;20507;-49
2023/11/06 02:59:53;;;;;;;5.75;1.02;;;;;;;7.27;80.73;97705.81;4980444;28;20503;-46
2023/11/06 03:02:20;;;;;;;4.63;1.27;;;;;;;7.24;80.13;97717.06;4986489;28;20059;-44
2023/11/06 03:04:47;;;;;;;2.50;0.88;;;;;;;7.24;80.89;97721.34;4976552;28;20057;-46
2023/11/06 03:07:13;;;;;;;3.70;0.90;;;;;;;7.24;79.76;97731.66;4997478;28;20050;-46
2023/11/06 03:09:40;;;;;;;3.53;1.35;;;;;;;7.24;81.02;97726.50;4981551;28;20510;-45
2023/11/06 03:12:07;;;;;;;2.55;0.98;;;;;;;7.22;80.32;97733.44;4975212;28;20125;-42
2023/11/06 03:14:35;;;;;;;2.22;1.10;;;;;;;7.19;80.55;97735.19;4982805;28;20688;-42
2023/11/06 03:17:02;;;;;;;3.15;1.63;;;;;;;7.19;80.34;97740.34;4979278;28;20057;-47
2023/11/06 03:19:29;;;;;;;4.65;2.17;;;;;;;7.18;80.35;97730.94;4980690;28;20054;-42
2023/11/06 03:21:56;;;;;;;6.95;1.00;;;;;;;7.20;80.91;97742.03;4985599;28;20485;-44
2023/11/06 03:24:23;;;;;;;2.88;0.50;;;;;;;7.21;80.89;97740.31;4982025;28;20055;-42
2023/11/06 03:26:49;;;;;;;4.40;1.50;;;;;;;7.19;81.51;97735.19;4980039;28;20053;-42
2023/11/06 03:29:16;;;;;;;3.10;1.00;;;;;;;7.19;80.24;97740.34;4975385;28;20054;-46
2023/11/06 03:31:43;;;;;;;2.40;1.40;;;;;;;7.19;80.45;97750.66;4981489;28;20061;-44
2023/11/06 03:34:10;;;;;;;5.25;1.10;;;;;;;7.19;80.69;97744.63;4985353;28;20057;-46
2023/11/06 03:36:45;;;;;;;1.50;0.75;;;;;;;7.17;81.02;97744.69;4980725;28;20050;-42
2023/11/06 03:39:13;;;;;;;2.83;1.02;;;;;;;7.18;81.04;97753.25;4984982;28;20504;-42
2023/11/06 03:41:40;;;;;;;1.48;0.82;;;;;;;7.15;81.49;97754.19;4982522;28;20583;-41
2023/11/06 03:44:07;;;;;;;3.00;1.10;;;;;;;7.14;80.05;97752.50;4985148;28;20054;-50
2023/11/06 03:46:35;;;;;;;1.35;0.90;;;;;;;7.15;80.56;97759.34;4985073;28;20054;-47
2023/11/06 03:49:03;;;;;;;6.07;1.63;;;;;;;7.15;80.68;97764.47;4984313;28;20488;-41
2023/11/06 03:51:30;;;;;;;1.52;0.82;;;;;;;7.15;79.89;97759.34;4984168;28;20050;-44
2023/11/06 03:53:56;;;;;;;4.65;1.75;;;;;;;7.15;80.33;97763.63;4984438;28;20050;-46
2023/11/06 03:56:23;;;;;;;5.30;1.75;;;;;;;7.14;81.14;97767.94;4979058;28;20056;-45
2023/11/06 03:58:50;;;;;;;5.65;1.90;;;;;;;7.13;80.23;97779.09;4985869;28;20492;-43
2023/11/06 04:01:16;;;;;;;4.63;1.48;;;;;;;7.13;81.33;97786.00;4978554;28;20050;-47
2023/11/06 04:03:43;;;;;;;5.32;1.13;;;;;;;7.12;79.90;97782.56;4983663;28;20050;-44
2023/11/06 04:06:10;;;;;;;4.45;1.08;;;;;;;7.12;80.62;97785.16;4982362;28;20558;-46
2023/11/06 04:08:37;;;;;;;4.80;1.73;;;;;;;7.12;81.17;97784.31;4983112;28;20669;-48
2023/11/06 04:11:03;;;;;;;6.40;1.90;;;;;;;7.12;80.90;97805.75;4987450;28;20072;-47
2023/11/06 04:13:30;;;;;;;3.78;1.13;;;;;;;7.10;80.18;97797.22;4984458;28;20082;-40
2023/11/06 04:15:59;;;;;;;4.97;2.45;;;;;;;7.10;81.52;97802.38;4983736;28;20050;-48
2023/11/06 04:18:26;;;;;;;7.78;1.52;;;;;;;7.09;80.71;97808.38;4989301;28;20046;-47
2023/11/06 04:20:54;;;;;;;3.35;1.05;;;;;;;7.08;80.63;97806.72;4984895;28;20050;-42
2023/11/06 04:23:21;;;;;;;3.20;1.42;;;;;;;7.06;81.25;97811.88;4988083;28;20459;-46
2023/11/06 04:25:48;;;;;;;5.43;1.55;;;;;;;7.05;80.75;97817.06;4986529;28;20055;-46
2023/11/06 04:28:15;;;;;;;4.57;1.05;;;;;;;7.04;80.47;97815.38;4989737;28;20057;-40
2023/11/06 04:30:43;;;;;;;4.18;1.13;;;;;;;7.03;80.71;97811.13;4983730;28;20051;-47
2023/11/06 04:33:10;;;;;;;2.05;1.67;;;;;;;7.02;81.13;97819.72;4983728;28;20046;-42
2023/11/06 04:35:37;;;;;;;2.78;1.83;;;;;;;7.02;81.45;97814.56;4982630;28;20512;-44
2023/11/06 04:38:04;;;;;;;3.30;1.13;;;;;;;7.02;80.51;97822.28;4983149;28;20047;-44
2023/11/06 04:40:31;;;;;;;4.55;1.80;;;;;;;7.01;80.39;97821.47;4984830;28;20073;-43
2023/11/06 04:42:58;;;;;;;3.10;1.25;;;;;;;7.01;80.82;97818.03;4983015;28;20042;-45
2023/11/06 04:45:25;;;;;;;2.40;1.23;;;;;;;7.00;81.10;97816.34;4985990;28;20047;-42
2023/11/06 04:47:52;;;;;;;3.03;1.63;;;;;;;7.00;81.80;97821.50;4985465;28;20070;-41
2023/11/06 04:50:19;;;;;;;7.15;1.45;;;;;;;6.98;80.97;97820.66;4979936;28;20046;-45
2023/11/06 04:52:46;;;;;;;4.55;1.30;;;;;;;6.99;81.45;97819.81;4983633;28;20047;-43
2023/11/06 04:55:13;;;;;;;3.65;1.33;;;;;;;6.99;81.67;97824.97;4983092;28;20068;-48
2023/11/06 04:57:39;;;;;;;3.22;1.20;;;;;;;6.98;81.40;97823.25;4981135;28;21317;-46
2023/11/06 05:00:07;;;;;;;3.83;1.65;;;;;;;6.98;81.95;97828.41;4988912;28;20394;-51
2023/11/06 05:02:33;;;;;;;3.45;1.52;;;;;;;6.98;80.71;97831.81;4988556;28;20054;-45
2023/11/06 05:05:00;;;;;;;3.85;1.63;;;;;;;6.97;80.09;97843.00;4989707;28;20078;-48
2023/11/06 05:07:27;;;;;;;3.83;1.23;;;;;;;6.96;80.03;97845.63;4991371;28;20129;-43
2023/11/06 05:09:54;;;;;;;4.47;1.92;;;;;;;6.96;81.24;97840.47;4988728;28;20061;-44
2023/11/06 05:12:21;;;;;;;4.55;1.38;;;;;;;6.95;80.28;97844.75;4986083;28;20343;-45
2023/11/06 05:14:47;;;;;;;5.43;1.40;;;;;;;6.94;81.67;97843.94;4983325;28;20038;-45
2023/11/06 05:17:14;;;;;;;7.03;1.42;;;;;;;6.93;81.21;97849.13;4986237;28;20069;-40
2023/11/06 05:19:42;;;;;;;4.78;2.13;;;;;;;6.92;81.51;97842.25;4984964;28;20042;-41
2023/11/06 05:22:09;;;;;;;4.13;1.98;;;;;;;6.90;81.58;97847.47;4986295;28;20054;-43
2023/11/06 05:24:41;;;;;;;8.65;1.77;;;;;;;6.88;81.30;97853.50;4986811;28;20057;-42
2023/11/06 05:27:08;;;;;;;2.83;1.25;;;;;;;6.87;80.63;97854.38;4982323;28;20062;-45
2023/11/06 05:29:34;;;;;;;4.65;1.55;;;;;;;6.85;80.11;97862.13;4986472;28;20042;-47
2023/11/06 05:32:01;;;;;;;2.67;1.65;;;;;;;6.82;81.06;97862.22;4983990;28;20057;-49
2023/11/06 05:34:28;;;;;;;4.22;1.23;;;;;;;6.79;81.19;97864.88;4984762;28;20054;-46
2023/11/06 05:36:55;;;;;;;5.25;1.35;;;;;;;6.79;81.48;97870.03;4988690;28;20415;-47
2023/11/06 05:39:21;;;;;;;6.13;1.98;;;;;;;6.76;80.72;97876.06;4984845;28;20050;-42
2023/11/06 05:41:48;;;;;;;6.18;1.77;;;;;;;6.74;80.00;97872.69;4983297;28;20519;-52
2023/11/06 05:44:15;;;;;;;3.33;1.33;;;;;;;6.74;80.80;97876.97;4987792;28;20444;-44
2023/11/06 05:46:43;;;;;;;4.95;1.80;;;;;;;6.72;80.35;97879.56;4987342;28;20065;-46
2023/11/06 05:49:10;;;;;;;3.97;2.28;;;;;;;6.71;80.58;97887.31;4982440;28;20054;-40
2023/11/06 05:51:38;;;;;;;5.68;1.88;;;;;;;6.69;80.66;97889.97;4982558;28;20040;-46
2023/11/06 05:54:06;;;;;;;2.72;1.48;;;;;;;6.66;81.13;97885.69;4979404;28;20054;-45
2023/11/06 05:56:33;;;;;;;5.18;1.40;;;;;;;6.64;80.30;97890.03;4983712;28;20046;-46
2023/11/06 05:59:02;;;;;;;7.05;2.13;;;;;;;6.64;80.15;97887.47;4980744;28;20081;-43
2023/11/06 06:01:30;;;;;;;4.20;1.45;;;;;;;6.61;81.10;97886.69;4986709;28;20296;-42
2023/11/06 06:03:57;;;;;;;3.97;1.55;;;;;;;6.61;80.60;97892.69;4982715;28;20051;-50
2023/11/06 06:06:25;;;;;;;3.42;1.60;;;;;;;6.61;81.96;97897.81;4986035;28;20043;-41
2023/11/06 06:08:52;;;;;;;4.25;1.52;;;;;;;6.61;81.04;97908.13;4982339;28;20046;-47
2023/11/06 06:11:19;;;;;;;2.83;1.88;;;;;;;6.61;80.36;97907.25;4976284;28;20941;-40
2023/11/06 06:13:46;;;;;;;4.88;1.92;;;;;;;6.62;81.48;97908.97;4980123;28;20042;-48
2023/11/06 06:16:13;;;;;;;4.55;1.50;;;;;;;6.60;81.14;97909.00;4980419;28;20059;-40
2023/11/06 06:18:39;;;;;;;6.90;1.42;;;;;;;6.60;81.23;97914.16;4982547;28;20389;-41
2023/11/06 06:21:06;;;;;;;5.25;1.30;;;;;;;6.59;80.09;97920.19;4982999;28;20051;-43
2023/11/06 06:23:33;;;;;;;9.77;1.85;;;;;;;6.58;81.25;97915.88;4980654;28;20049;-45
2023/11/06 06:26:01;;;;;;;3.25;1.35;;;;;;;6.56;81.52;97915.09;4974803;28;20062;-42
2023/11/06 06:28:28;;;;;;;4.70;2.10;;;;;;;6.54;81.00;97920.25;4985113;28;20053;-41
2023/11/06 06:30:54;;;;;;;6.40;2.22;;;;;;;6.53;80.87;97928.00;4984347;28;20055;-44
2023/11/06 06:33:21;;;;;;;4.05;1.20;;;;;;;6.52;80.72;97934.88;4986425;28;20049;-43
2023/11/06 06:35:48;;;;;;;5.88;2.15;;;;;;;6.49;80.59;97926.38;4983938;28;20177;-45
2023/11/06 06:38:14;;;;;;;7.88;2.88;;;;;;;6.48;81.20;97927.28;4988129;28;20085;-42
2023/11/06 06:40:41;;;;;;;3.83;1.40;;;;;;;6.47;80.34;97935.84;4982982;28;20043;-50
2023/11/06 06:43:07;;;;;;;6.45;2.08;;;;;;;6.46;81.02;97934.16;4983157;28;20442;-43
2023/11/06 06:45:35;;;;;;;7.28;3.28;;;;;;;6.44;81.86;97934.19;4985317;28;20059;-46
2023/11/06 06:48:01;;;;;;;5.50;2.10;;;;;;;6.43;81.95;97933.31;4984951;28;20046;-46
2023/11/06 06:50:28;;;;;;;6.45;2.05;;;;;;;6.42;80.41;97944.50;4989750;28;20042;-45
2023/11/06 06:52:55;;;;;;;8.02;2.45;;;;;;;6.41;80.63;97953.09;4988224;28;20051;-40
2023/11/06 06:55:23;;;;;;;4.95;1.90;;;;;;;6.41;80.68;97941.94;4987912;28;20510;-46
2023/11/06 06:57:49;;;;;;;8.07;2.90;;;;;;;6.40;80.70;97951.41;4988392;28;20519;-42
2023/11/06 07:00:17;;;;;;;8.38;3.15;;;;;;;6.41;81.47;97952.22;4986127;28;20053;-48
2023/11/06 07:02:43;;;;;;;6.05;2.10;;;;;;;6.42;81.10;97959.09;4984310;28;20097;-43
2023/11/06 07:05:10;;;;;;;4.03;1.92;;;;;;;6.40;80.32;97951.41;4978323;28;20643;-40
2023/11/06 07:07:37;;;;;;;7.28;1.95;;;;;;;6.41;81.46;97958.22;4979800;28;20104;-46
2023/11/06 07:10:04;;;;;;;9.27;2.47;;;;;;;6.39;81.89;97967.69;4980660;28;20137;-46
2023/11/06 07:12:31;;;;;;;7.43;2.45;;;;;;;6.40;81.08;97966.84;4982868;28;20503;-47
2023/11/06 07:14:57;;;;;;;8.20;2.10;;;;;;;6.40;80.42;97966.84;4983050;28;20046;-42
2023/11/06 07:17:24;;;;;;;8.88;1.92;;;;;;;6.41;81.82;97973.66;4982807;28;20081;-45
2023/11/06 07:19:51;;;;;;;2.50;1.27;;;;;;;6.40;80.88;97977.13;4986951;28;20086;-47
2023/11/06 07:22:17;;;;;;;5.65;2.13;;;;;;;6.40;81.85;97982.25;4979672;28;20094;-47
2023/11/06 07:24:44;;;;;;;5.30;2.28;;;;;;;6.40;80.61;97982.25;4972474;28;20086;-48
2023/11/06 07:27:11;;;;;;;6.57;2.50;;;;;;;6.42;81.56;97985.63;4981732;28;20057;-42
2023/11/06 07:29:37;;;;;;;7.80;3.15;;;;;;;6.43;81.14;97992.47;4980513;28;20058;-43
2023/11/06 07:32:05;;;;;;;8.50;3.60;;;;;;;6.42;80.76;97995.94;4978538;28;20441;-42
2023/11/06 07:34:32;;;;;;;8.75;2.83;;;;;;;6.45;80.48;97999.31;4985373;28;20047;-47
2023/11/06 07:36:58;;;;;;;6.00;2.22;;;;;;;6.45;81.97;98004.47;4979421;28;20182;-46
2023/11/06 07:39:25;;;;;;;5.28;2.03;;;;;;;6.48;81.66;97999.28;4980569;28;20053;-40
2023/11/06 07:41:52;;;;;;;6.43;1.45;;;;;;;6.51;82.03;98019.78;4981161;28;20051;-45
2023/11/06 07:44:20;;;;;;;4.68;1.92;;;;;;;6.61;81.95;98020.44;4980060;28;20092;-43
2023/11/06 07:46:46;;;;;;;7.07;2.42;;;;;;;6.81;80.58;98018.34;4984605;28;20058;-45
2023/11/06 07:49:13;;;;;;;5.80;2.50;;;;;;;7.01;81.72;98039.38;4979696;28;20058;-41
2023/11/06 07:51:40;;;;;;;7.10;1.65;;;;;;;7.14;81.05;98040.84;4977523;28;20474;-46
2023/11/06 07:54:07;;;;;;;6.40;1.92;;;;;;;7.31;81.18;98039.63;4977219;28;20061;-40
2023/11/06 07:56:36;;;;;;;8.57;2.17;;;;;;;7.40;80.76;98043.72;4983035;28;20054;-42
2023/11/06 07:59:03;;;;;;;3.33;1.90;;;;;;;7.46;80.89;98047.00;4983995;28;20137;-45
2023/11/06 08:01:30;;;;;;;5.15;1.48;;;;;;;7.54;80.02;98049.41;4988754;28;20073;-42
2023/11/06 08:03:56;;;;;;;4.18;1.90;;;;;;;7.61;79.69;98055.28;4984876;28;20062;-42
2023/11/06 08:06:23;;;;;;;3.60;1.55;;;;;;;7.82;79.66;98063.38;4981901;28;20105;-48
2023/11/06 08:08:50;;;;;;;5.75;1.50;;;;;;;8.04;79.99;98068.88;4984506;28;20410;-45
2023/11/06 08:11:20;;;;;;;4.68;1.77;;;;;;;8.13;78.91;98072.97;4979880;28;20053;-44
2023/11/06 08:13:47;;;;;;;5.40;1.55;;;;;;;8.13;79.27;98072.97;4979443;28;20055;-42
2023/11/06 08:16:13;;;;;;;5.70;1.83;;;;;;;8.14;79.18;98073.81;4969298;28;20051;-41
2023/11/06 08:18:40;;;;;;;4.50;0.80;;;;;;;8.20;78.74;98081.38;4977707;28;20723;-47
2023/11/06 08:21:09;;;;;;;3.75;1.15;;;;;;;8.38;78.86;98082.69;4981792;28;20070;-40
2023/11/06 08:23:36;;;;;;;4.93;0.90;;;;;;;8.64;79.34;98083.75;4981543;28;20069;-44
2023/11/06 08:26:04;;;;;;;5.30;2.35;;;;;;;8.94;79.73;98086.41;4979555;28;20054;-48
2023/11/06 08:28:32;;;;;;;3.88;1.40;;;;;;;9.23;79.68;98091.63;4979390;28;20047;-44
2023/11/06 08:30:58;;;;;;;2.92;1.10;;;;;;;9.64;79.33;98096.47;4975327;28;20059;-44
2023/11/06 08:33:25;;;;;;;9.02;1.35;;;;;;;10.31;77.85;98089.22;4978947;28;20058;-43
2023/11/06 08:35:52;;;;;;;3.35;1.95;;;;;;;10.78;77.37;98096.25;4980941;28;20092;-41
2023/11/06 08:38:19;;;;;;;5.70;2.97;;;;;;;11.09;77.94;98098.66;4978235;28;20042;-47
2023/11/06 08:40:50;;;;;;;8.90;4.28;;;;;;;11.66;77.71;98098.28;4975401;28;20047;-44
2023/11/06 08:43:17;;;;;;;7.70;3.90;;;;;;;12.45;75.30;98102.13;4978642;28;20063;-47
2023/11/06 08:45:43;;;;;;;4.68;2.13;;;;;;;13.15;74.32;98106.09;4978087;28;20046;-49
2023/11/06 08:48:10;;;;;;;10.50;2.45;;;;;;;13.77;73.49;98098.09;4984174;28;20051;-45
2023/11/06 08:50:37;;;;;;;3.95;2.00;;;;;;;14.45;71.68;98109.59;4986713;28;20059;-46
2023/11/06 08:53:03;;;;;;;9.20;3.17;;;;;;;15.13;70.26;98105.31;4984107;28;20096;-44
2023/11/06 08:55:30;;;;;;;13.68;4.35;;;;;;;15.80;68.82;98113.94;4978722;28;20050;-49
2023/11/06 08:57:56;;;;;;;9.32;3.33;;;;;;;16.38;67.65;98119.44;4983258;28;20054;-47
2023/11/06 09:00:27;;;;;;;4.07;1.23;;;;;;;16.95;66.38;98117.88;4979295;28;20058;-47
2023/11/06 09:02:54;;;;;;;10.13;3.35;;;;;;;17.59;66.11;98128.88;4980784;28;20089;-47
2023/11/06 09:05:21;;;;;;;12.82;3.40;;;;;;;18.04;64.35;98131.28;4985944;28;20042;-46
2023/11/06 09:07:48;;;;;;;16.00;5.43;;;;;;;18.53;64.12;98130.81;4989700;28;20046;-44
2023/11/06 09:10:16;;;;;;;8.45;2.20;;;;;;;19.01;63.14;98141.56;4977010;28;20057;-43
2023/11/06 09:12:42;;;;;;;8.25;2.45;;;;;;;19.44;61.91;98141.34;4990015;28;20211;-50
2023/11/06 09:15:10;;;;;;;9.32;2.78;;;;;;;19.85;60.89;98139.34;4991296;28;20045;-41
2023/11/06 09:17:37;;;;;;;5.70;2.30;;;;;;;20.08;60.12;98148.22;4981512;28;20397;-49
2023/11/06 09:20:08;;;;;;;8.30;1.73;;;;;;;20.35;59.04;98147.16;4984649;28;20050;-44
2023/11/06 09:22:35;;;;;;;4.82;1.27;;;;;;;20.70;58.96;98161.25;4985861;28;20151;-49
2023/11/06 09:25:04;;;;;;;8.13;1.98;;;;;;;21.04;58.21;98157.91;4985801;28;20137;-48
2023/11/06 09:27:33;;;;;;;5.55;2.33;;;;;;;21.36;57.04;98157.19;4981486;28;20154;-45
2023/11/06 09:30:02;;;;;;;7.32;2.55;;;;;;;21.75;55.91;98164.72;4978366;28;20057;-49
2023/11/06 09:32:31;;;;;;;9.50;3.47;;;;;;;22.11;55.74;98161.03;4976786;28;20460;-47
2023/11/06 09:35:00;;;;;;;6.55;1.65;;;;;;;22.30;54.86;98161.25;4976082;28;20074;-43
2023/11/06 09:37:27;;;;;;;7.38;3.50;;;;;;;22.43;53.57;98170.78;4978398;28;20863;-49
2023/11/06 09:39:53;;;;;;;5.30;1.92;;;;;;;22.43;53.06;98176.03;4974361;28;20051;-45
2023/11/06 09:42:20;;;;;;;3.88;1.55;;;;;;;22.51;52.75;98176.25;4985579;28;20411;-47
2023/11/06 09:44:47;;;;;;;5.35;1.88;;;;;;;22.57;51.90;98172.28;4978203;28;20374;-50
2023/11/06 09:47:15;;;;;;;6.88;2.22;;;;;;;22.79;52.01;98181.88;4964444;28;20049;-42
2023/11/06 09:49:50;;;;;;;4.05;1.80;;;;;;;22.99;51.10;98187.28;4961967;28;20055;-41
2023/11/06 09:52:18;;;;;;;6.22;1.42;;;;;;;23.02;50.48;98187.03;4985898;28;20093;-46
2023/11/06 09:54:47;;;;;;;10.80;2.75;;;;;;;23.06;50.21;98193.72;4989304;28;20129;-43
2023/11/06 09:57:14;;;;;;;5.65;2.20;;;;;;;23.19;50.64;98195.31;4982852;28;20050;-45
2023/11/06 09:59:41;;;;;;;5.15;1.92;;;;;;;23.31;49.37;98199.56;4981322;28;20055;-49
2023/11/06 10:02:09;;;;;;;4.07;1.00;;;;;;;23.47;49.60;98196.47;4984141;28;20051;-46
2023/11/06 10:04:36;;;;;;;6.45;1.60;;;;;;;23.64;48.94;98206.53;4988106;28;20046;-51
2023/11/06 10:07:04;;;;;;;5.45;1.70;;;;;;;23.70;48.54;98211.28;4989586;28;20126;-48
2023/11/06 10:09:31;;;;;;;8.00;2.17;;;;;;;23.75;47.95;98209.91;4984020;28;20044;-45
2023/11/06 10:12:16;;;;;;;14.95;6.72;;;;;;;23.90;47.85;98214.81;4985384;28;20433;-42
2023/11/06 10:14:42;;;;;;;24.50;8.95;;;;;;;24.04;47.50;98220.72;4983095;28;20557;-45
2023/11/06 10:17:09;;;;;;;14.27;5.38;;;;;;;24.05;46.37;98225.88;4987229;28;20043;-45
2023/11/06 10:19:36;;;;;;;17.20;5.07;;;;;;;23.99;46.16;98229.03;4983738;28;20130;-43
2023/11/06 10:22:12;;;;;;;7.63;3.13;;;;;;;23.59;43.35;98218.34;4985249;28;20117;-48
2023/11/06 10:24:48;;;;;;;16.15;4.95;;;;;;;22.89;45.73;98224.19;4981046;28;20050;-45
2023/11/06 10:27:20;;;;;;;;;;;;;;;22.05;45.47;98237.03;4980419;28;20047;-46
2023/11/06 10:29:58;;;;;;;12.38;4.10;;;;;;;21.60;47.04;98231.75;4977825;28;19932;-48
2023/11/06 10:32:29;;;;;;;10.82;3.13;;;;;;;21.17;47.97;98232.31;4994182;28;20177;-45
2023/11/06 10:35:12;;;;;;;13.90;5.43;;;;;;;20.66;47.84;98241.34;4978588;28;20057;-45
2023/11/06 10:37:42;;;;;;;12.50;3.95;;;;;;;20.14;48.98;98241.56;4979754;28;20074;-46
2023/11/06 10:40:13;;;;;;;5.53;2.03;;;;;;;19.62;49.89;98244.25;4979381;28;20073;-43
2023/11/06 10:42:42;;;;;;;8.73;3.92;;;;;;;19.12;50.49;98258.09;4983002;28;20054;-46
2023/11/06 10:45:14;;;;;;;10.45;2.50;;;;;;;18.68;51.20;98250.41;4981632;28;20042;-47
2023/11/06 10:50:23;;;;;;;10.88;4.55;;;;;;;17.97;52.60;98256.56;5027333;28;20418;-49
2023/11/06 10:52:54;;;;;;;9.90;3.72;;;;;;;17.69;53.12;98249.56;4996597;28;20057;-47
2023/11/06 10:55:23;;;;;;;8.32;3.05;;;;;;;17.38;52.76;98249.66;5000648;28;20051;-46
2023/11/06 10:57:59;;;;;;;9.13;4.10;;;;;;;17.00;53.24;98260.56;5003248;28;20050;-45
2023/11/06 11:00:26;;;;;;;6.20;3.00;;;;;;;16.69;54.37;98261.41;5000249;28;20058;-48
2023/11/06 11:02:54;;;;;;;13.60;6.05;;;;;;;16.50;54.73;98258.13;5005784;28;20057;-51
2023/11/06 11:05:24;;;;;;;13.38;5.63;;;;;;;16.31;55.17;98261.78;4996886;28;20096;-48
2023/11/06 11:07:53;;;;;;;11.98;5.07;;;;;;;16.12;55.30;98267.16;4994557;28;20176;-45
2023/11/06 11:10:26;;;;;;;14.50;5.70;;;;;;;16.00;55.53;98266.91;4991564;28;20060;-44
2023/11/06 11:12:57;;;;;;;21.10;7.53;;;;;;;15.91;56.31;98268.22;5000833;28;20054;-47
2023/11/06 11:15:25;;;;;;;13.73;5.13;;;;;;;15.85;56.58;98268.56;4990470;28;20508;-47
2023/11/06 11:20:57;;;;;;;13.18;2.85;;;;;;;15.63;56.77;98274.91;5053538;27;20413;-46
2023/11/06 11:23:44;;;;;;;4.55;1.30;;;;;;;15.57;57.17;98277.00;5030146;28;20053;-46
2023/11/06 11:26:13;;;;;;;12.93;3.47;;;;;;;15.62;57.53;98267.13;5023684;28;20077;-45
2023/11/06 11:29:09;;;;;;;7.45;2.85;;;;;;;15.53;56.72;98273.69;5009834;28;20042;-49
2023/11/06 11:31:39;;;;;;;8.25;2.25;;;;;;;15.38;56.73;98263.13;5020918;28;20065;-43
2023/11/06 11:34:07;;;;;;;8.48;1.92;;;;;;;15.17;57.66;98267.69;4993358;28;20141;-44
2023/11/06 11:36:37;;;;;;;11.68;3.53;;;;;;;14.94;57.45;98272.28;4994881;28;20128;-42
2023/11/06 11:39:13;;;;;;;11.15;2.92;;;;;;;14.81;57.39;98271.16;5004198;28;20060;-48
2023/11/06 11:44:36;;;;;;;4.90;2.35;;;;;;;14.50;58.61;98268.25;5047353;27;20408;-45
2023/11/06 11:47:04;;;;;;;6.57;1.98;;;;;;;14.38;59.13;98278.34;4996975;28;20042;-44
2023/11/06 11:58:09;;;;;;;9.52;3.10;;;;;;;14.10;59.46;98287.44;5071034;27;20396;-44